createdAt,value
2024-02-28T00:02:03.268Z,20.50
2024-02-28T00:04:13.283Z,24.60
2024-02-28T00:06:23.451Z,21.00
2024-02-28T00:08:33.626Z,22.20
2024-02-28T00:10:43.675Z,33.40
2024-02-28T00:12:53.606Z,28.90
2024-02-28T00:15:03.597Z,10.70
2024-02-28T00:17:15.387Z,13.90
2024-02-28T00:19:26.964Z,21.90
2024-02-28T00:21:36.845Z,18.40
2024-02-28T00:23:46.994Z,11.60
2024-02-28T00:25:57.203Z,16.90
2024-02-28T00:28:07.269Z,29.00
2024-02-28T00:30:18.532Z,24.20
2024-02-28T00:32:28.693Z,24.40
2024-02-28T00:34:38.604Z,20.80
2024-02-28T00:36:55.594Z,14.90
2024-02-28T00:39:06.454Z,14.40
2024-02-28T00:41:16.776Z,12.30
2024-02-28T00:43:26.701Z,26.00
2024-02-28T00:45:36.520Z,19.60
2024-02-28T00:47:46.568Z,14.10
2024-02-28T00:49:57.686Z,22.00
2024-02-28T00:52:07.969Z,21.30
2024-02-28T00:54:18.152Z,24.00
2024-02-28T00:56:28.741Z,16.80
2024-02-28T00:58:38.665Z,13.80
2024-02-28T01:00:48.974Z,37.30
2024-02-28T01:02:59.063Z,25.70
2024-02-28T01:05:09.969Z,27.20
2024-02-28T01:07:20.452Z,28.00
2024-02-28T01:09:30.467Z,17.20
2024-02-28T01:11:40.673Z,22.60
2024-02-28T01:13:50.745Z,25.30
2024-02-28T01:16:01.540Z,22.70
2024-02-28T01:18:11.768Z,22.60
2024-02-28T01:20:22.106Z,34.70
2024-02-28T01:22:31.952Z,28.40
2024-02-28T01:24:42.249Z,38.00
2024-02-28T01:26:52.513Z,20.40
2024-02-28T01:29:02.437Z,18.60
2024-02-28T01:31:12.854Z,24.60
2024-02-28T01:33:23.057Z,24.80
2024-02-28T01:35:32.822Z,22.80
2024-02-28T01:37:43.089Z,18.00
2024-02-28T01:39:53.124Z,36.00
2024-02-28T01:42:03.027Z,28.70
2024-02-28T01:44:13.038Z,18.40
2024-02-28T01:46:29.506Z,27.20
2024-02-28T01:48:39.638Z,20.90
2024-02-28T01:50:49.562Z,25.80
2024-02-28T01:52:59.901Z,17.90
2024-02-28T01:55:12.067Z,21.50
2024-02-28T01:57:22.342Z,24.30
2024-02-28T01:59:33.164Z,31.70
2024-02-28T02:01:44.861Z,23.40
2024-02-28T02:03:55.055Z,27.60
2024-02-28T02:06:05.480Z,23.60
2024-02-28T02:08:15.503Z,26.40
2024-02-28T02:10:25.312Z,41.40
2024-02-28T02:12:35.320Z,27.80
2024-02-28T02:14:50.021Z,28.80
2024-02-28T02:16:59.975Z,27.80
2024-02-28T02:19:11.862Z,19.70
2024-02-28T02:21:25.894Z,22.90
2024-02-28T02:23:37.082Z,29.80
2024-02-28T02:25:51.590Z,24.50
2024-02-28T02:28:01.709Z,31.60
2024-02-28T02:30:13.571Z,21.80
2024-02-28T02:32:23.711Z,26.90
2024-02-28T02:34:34.280Z,21.00
2024-02-28T02:36:44.303Z,18.40
2024-02-28T02:38:54.052Z,24.30
2024-02-28T02:41:04.306Z,28.90
2024-02-28T02:43:14.295Z,45.80
2024-02-28T02:45:24.406Z,24.00
2024-02-28T02:47:34.279Z,26.20
2024-02-28T02:49:44.476Z,31.00
2024-02-28T02:51:54.642Z,26.10
2024-02-28T02:54:04.717Z,26.10
2024-02-28T02:56:14.675Z,43.70
2024-02-28T02:58:24.657Z,24.10
2024-02-28T03:00:34.534Z,27.10
2024-02-28T03:02:45.135Z,24.00
2024-02-28T03:04:54.900Z,26.50
2024-02-28T03:07:05.127Z,44.50
2024-02-28T03:09:15.099Z,36.70
2024-02-28T03:11:25.114Z,40.10
2024-02-28T03:13:34.868Z,25.90
2024-02-28T03:15:45.233Z,31.40
2024-02-28T03:17:55.325Z,27.90
2024-02-28T03:20:05.293Z,39.40
2024-02-28T03:22:15.249Z,29.80
2024-02-28T03:24:25.254Z,30.30
2024-02-28T03:26:34.982Z,29.00
2024-02-28T03:28:44.774Z,31.10
2024-02-28T03:30:54.960Z,31.10
2024-02-28T03:33:05.634Z,28.90
2024-02-28T03:35:15.635Z,33.90
2024-02-28T03:37:25.811Z,25.50
2024-02-28T03:39:35.720Z,30.50
2024-02-28T03:41:45.632Z,32.10
2024-02-28T03:43:55.962Z,30.30
2024-02-28T03:46:06.125Z,35.30
2024-02-28T03:48:16.011Z,33.10
2024-02-28T03:50:25.987Z,24.70
2024-02-28T03:52:35.932Z,26.60
2024-02-28T03:54:47.341Z,31.00
2024-02-28T03:56:57.821Z,38.70
2024-02-28T03:59:07.650Z,57.70
2024-02-28T04:01:18.315Z,43.40
2024-02-28T04:03:28.858Z,29.80
2024-02-28T04:05:38.786Z,31.80
2024-02-28T04:07:48.783Z,29.00
2024-02-28T04:09:58.810Z,36.80
2024-02-28T04:12:09.342Z,34.70
2024-02-28T04:14:19.187Z,43.00
2024-02-28T04:16:29.209Z,50.80
2024-02-28T04:18:39.464Z,38.20
2024-02-28T04:20:49.342Z,39.30
2024-02-28T04:22:59.477Z,38.30
2024-02-28T04:25:11.142Z,47.20
2024-02-28T04:27:21.154Z,30.10
2024-02-28T04:29:31.023Z,32.20
2024-02-28T04:31:43.271Z,30.80
2024-02-28T04:33:53.646Z,37.10
2024-02-28T04:36:03.638Z,61.20
2024-02-28T04:38:13.626Z,46.10
2024-02-28T04:40:24.051Z,46.20
2024-02-28T04:42:33.862Z,28.90
2024-02-28T04:44:43.749Z,37.10
2024-02-28T04:46:54.147Z,37.00
2024-02-28T04:49:04.069Z,31.70
2024-02-28T04:51:13.991Z,31.00
2024-02-28T04:53:24.043Z,38.50
2024-02-28T04:55:34.019Z,42.20
2024-02-28T04:57:44.137Z,38.10
2024-02-28T04:59:54.507Z,32.10
2024-02-28T05:02:05.016Z,29.30
2024-02-28T05:04:15.914Z,35.90
2024-02-28T05:06:25.728Z,33.90
2024-02-28T05:08:37.360Z,28.00
2024-02-28T05:10:47.379Z,26.20
2024-02-28T05:12:57.564Z,29.20
2024-02-28T05:15:08.787Z,21.70
2024-02-28T05:17:18.984Z,23.70
2024-02-28T05:19:28.936Z,21.60
2024-02-28T05:21:44.809Z,31.90
2024-02-28T05:23:54.753Z,33.20
2024-02-28T05:26:05.744Z,39.80
2024-02-28T05:28:15.417Z,40.30
2024-02-28T05:30:25.601Z,13.20
2024-02-28T05:32:35.621Z,10.90
2024-02-28T05:34:47.291Z,19.80
2024-02-28T05:36:57.234Z,20.70
2024-02-28T05:39:09.747Z,21.50
2024-02-28T05:41:20.963Z,14.70
2024-02-28T05:43:31.165Z,17.20
2024-02-28T05:45:41.629Z,18.20
2024-02-28T05:47:51.658Z,20.10
2024-02-28T05:50:01.885Z,17.10
2024-02-28T05:52:12.707Z,46.90
2024-02-28T05:54:22.744Z,27.10
2024-02-28T05:56:32.808Z,33.40
2024-02-28T05:58:42.713Z,47.10
2024-02-28T06:00:52.546Z,34.00
2024-02-28T06:03:02.605Z,23.30
2024-02-28T06:05:13.757Z,40.20
2024-02-28T06:07:25.906Z,37.40
2024-02-28T06:09:35.672Z,32.30
2024-02-28T06:11:45.986Z,65.60
2024-02-28T06:13:56.850Z,25.10
2024-02-28T06:16:07.502Z,35.60
2024-02-28T06:18:17.552Z,31.30
2024-02-28T06:20:27.348Z,44.60
2024-02-28T06:22:37.387Z,29.20
2024-02-28T06:24:47.272Z,34.40
2024-02-28T06:26:57.300Z,41.60
2024-02-28T06:29:08.011Z,41.00
2024-02-28T06:31:21.627Z,28.10
2024-02-28T06:33:31.433Z,33.50
2024-02-28T06:35:42.405Z,23.50
2024-02-28T06:37:53.405Z,15.90
2024-02-28T06:40:03.427Z,23.20
2024-02-28T06:42:13.321Z,25.20
2024-02-28T06:44:23.346Z,23.10
2024-02-28T06:46:33.341Z,27.30
2024-02-28T06:48:43.322Z,25.30
2024-02-28T06:50:53.566Z,30.20
2024-02-28T06:53:03.439Z,26.20
2024-02-28T06:55:15.568Z,15.70
2024-02-28T06:57:25.523Z,22.30
2024-02-28T06:59:35.972Z,21.30
2024-02-28T07:01:46.199Z,16.10
2024-02-28T07:03:56.183Z,17.10
2024-02-28T07:06:07.300Z,15.30
2024-02-28T07:08:17.252Z,28.70
2024-02-28T07:10:26.950Z,35.80
2024-02-28T07:12:36.886Z,35.30
2024-02-28T07:14:47.166Z,29.50
2024-02-28T07:16:57.140Z,42.40
2024-02-28T07:19:07.062Z,41.00
2024-02-28T07:21:17.026Z,30.30
2024-02-28T07:23:27.258Z,32.60
2024-02-28T07:25:37.097Z,33.20
2024-02-28T07:27:47.122Z,37.20
2024-02-28T07:29:57.044Z,30.10
2024-02-28T07:32:07.192Z,20.10
2024-02-28T07:34:17.889Z,31.40
2024-02-28T07:36:28.247Z,32.60
2024-02-28T07:38:38.364Z,21.00
2024-02-28T07:40:48.533Z,19.00
2024-02-28T07:42:58.383Z,14.90
2024-02-28T07:45:10.177Z,21.20
2024-02-28T07:47:20.677Z,24.20
2024-02-28T07:49:30.682Z,17.30
2024-02-28T07:51:42.188Z,20.60
2024-02-28T07:53:51.966Z,19.50
2024-02-28T07:56:02.318Z,18.90
2024-02-28T07:58:12.329Z,16.20
2024-02-28T08:00:22.663Z,19.30
2024-02-28T08:02:33.568Z,21.10
2024-02-28T08:04:43.530Z,20.60
2024-02-28T08:06:53.726Z,11.80
2024-02-28T08:09:05.763Z,15.40
2024-02-28T08:11:15.878Z,13.20
2024-02-28T08:13:26.280Z,14.60
2024-02-28T08:15:36.007Z,19.00
2024-02-28T08:17:46.349Z,17.90
2024-02-28T08:19:56.493Z,22.80
2024-02-28T08:22:06.816Z,18.30
2024-02-28T08:24:16.857Z,15.20
2024-02-28T08:26:27.127Z,13.30
2024-02-28T08:28:37.192Z,17.20
2024-02-28T08:30:47.216Z,15.70
2024-02-28T08:32:57.052Z,22.40
2024-02-28T08:35:07.519Z,18.90
2024-02-28T08:37:18.765Z,23.70
2024-02-28T08:39:28.803Z,15.80
2024-02-28T08:41:39.264Z,14.50
2024-02-28T08:43:49.045Z,14.80
2024-02-28T08:45:59.559Z,19.90
2024-02-28T08:48:10.953Z,13.90
2024-02-28T08:50:20.984Z,26.40
2024-02-28T08:52:31.208Z,15.30
2024-02-28T08:54:42.224Z,19.40
2024-02-28T08:56:56.771Z,20.00
2024-02-28T08:59:10.409Z,12.80
2024-02-28T09:01:23.643Z,30.50
2024-02-28T09:03:33.778Z,21.30
2024-02-28T09:05:43.714Z,16.30
2024-02-28T09:07:56.485Z,20.10
2024-02-28T09:12:14.473Z,15.60
2024-02-28T09:14:24.234Z,23.80
2024-02-28T09:16:34.051Z,16.30
2024-02-28T09:18:44.040Z,20.40
2024-02-28T09:20:53.788Z,18.60
2024-02-28T09:23:03.657Z,19.30
2024-02-28T09:25:14.186Z,23.10
2024-02-28T09:27:24.331Z,31.00
2024-02-28T09:29:34.484Z,25.10
2024-02-28T09:31:44.391Z,23.10
2024-02-28T09:33:55.559Z,20.70
2024-02-28T09:36:07.474Z,31.40
2024-02-28T09:38:17.686Z,24.50
2024-02-28T09:40:29.679Z,28.40
2024-02-28T09:42:39.766Z,23.40
2024-02-28T09:44:49.865Z,23.40
2024-02-28T09:46:59.802Z,30.50
2024-02-28T09:49:10.330Z,28.60
2024-02-28T09:51:25.430Z,25.80
2024-02-28T09:53:35.812Z,28.90
2024-02-28T09:55:46.007Z,35.00
2024-02-28T09:57:58.113Z,32.30
2024-02-28T10:00:11.514Z,54.90
2024-02-28T10:02:23.096Z,44.00
2024-02-28T10:04:33.190Z,36.60
2024-02-28T10:06:43.677Z,45.90
2024-02-28T10:08:54.728Z,39.00
2024-02-28T10:11:04.545Z,43.60
2024-02-28T10:13:14.736Z,40.80
2024-02-28T10:15:25.261Z,37.80
2024-02-28T10:17:35.067Z,36.80
2024-02-28T10:19:45.331Z,64.80
2024-02-28T10:21:55.508Z,40.60
2024-02-28T10:24:05.856Z,32.20
2024-02-28T10:26:16.401Z,28.30
2024-02-28T10:28:26.680Z,38.20
2024-02-28T10:30:44.205Z,39.60
2024-02-28T10:32:57.770Z,37.00
2024-02-28T10:35:12.174Z,30.40
2024-02-28T10:37:24.422Z,31.60
2024-02-28T10:39:36.905Z,31.40
2024-02-28T10:41:50.332Z,32.40
2024-02-28T10:44:00.064Z,41.10
2024-02-28T10:46:26.294Z,28.50
2024-02-28T10:48:42.049Z,35.00
2024-02-28T10:50:53.045Z,35.70
2024-02-28T10:53:08.302Z,41.40
2024-02-28T10:55:24.904Z,32.20
2024-02-28T10:57:36.218Z,36.50
2024-02-28T10:59:49.067Z,46.00
2024-02-28T11:01:58.997Z,35.30
2024-02-28T11:04:09.574Z,36.10
2024-02-28T11:06:25.961Z,26.20
2024-02-28T11:08:36.563Z,22.10
2024-02-28T11:10:49.903Z,28.50
2024-02-28T11:13:02.187Z,38.50
2024-02-28T11:15:21.460Z,48.00
2024-02-28T11:17:34.007Z,31.50
2024-02-28T11:19:43.904Z,27.70
2024-02-28T11:21:57.427Z,40.20
2024-02-28T11:24:08.172Z,33.00
2024-02-28T11:26:18.264Z,23.60
2024-02-28T11:28:28.442Z,24.70
2024-02-28T11:30:38.671Z,23.90
2024-02-28T11:32:48.817Z,39.30
2024-02-28T11:34:58.625Z,38.70
2024-02-28T11:37:09.219Z,33.90
2024-02-28T11:39:22.921Z,30.30
2024-02-28T11:41:33.481Z,39.20
2024-02-28T11:43:51.154Z,43.10
2024-02-28T11:46:02.773Z,36.80
2024-02-28T11:48:14.064Z,29.20
2024-02-28T11:50:24.966Z,25.80
2024-02-28T11:52:35.810Z,30.20
2024-02-28T11:54:45.644Z,32.50
2024-02-28T11:56:58.223Z,29.20
2024-02-28T11:59:09.964Z,27.10
2024-02-28T12:01:19.892Z,26.10
2024-02-28T12:03:29.846Z,28.80
2024-02-28T12:05:43.544Z,31.10
2024-02-28T12:07:56.613Z,25.30
2024-02-28T12:10:08.215Z,20.50
2024-02-28T12:12:20.144Z,19.50
2024-02-28T12:14:30.051Z,25.10
2024-02-28T12:16:41.354Z,13.30
2024-02-28T12:18:52.682Z,12.90
2024-02-28T12:21:02.736Z,12.40
2024-02-28T12:23:12.565Z,17.90
2024-02-28T12:25:22.350Z,14.60
2024-02-28T12:27:32.730Z,20.10
2024-02-28T12:29:42.605Z,20.50
2024-02-28T12:31:52.385Z,19.70
2024-02-28T12:34:02.718Z,20.50
2024-02-28T12:36:13.224Z,17.00
2024-02-28T12:38:24.344Z,19.50
2024-02-28T12:40:34.068Z,21.20
2024-02-28T12:42:44.693Z,16.00
2024-02-28T12:44:54.852Z,24.80
2024-02-28T12:47:04.763Z,24.70
2024-02-28T12:49:14.803Z,24.50
2024-02-28T12:51:44.776Z,39.70
2024-02-28T12:53:54.644Z,40.00
2024-02-28T12:56:04.476Z,29.20
2024-02-28T12:58:14.511Z,41.90
2024-02-28T13:00:25.055Z,31.80
2024-02-28T13:02:35.352Z,34.70
2024-02-28T13:04:45.441Z,25.10
2024-02-28T13:06:55.586Z,31.00
2024-02-28T13:09:06.450Z,23.10
2024-02-28T13:11:16.484Z,22.70
2024-02-28T13:13:27.137Z,29.60
2024-02-28T13:15:37.213Z,31.30
2024-02-28T13:17:48.539Z,31.50
2024-02-28T13:19:58.594Z,40.60
2024-02-28T13:22:08.557Z,37.60
2024-02-28T13:24:20.136Z,29.70
2024-02-28T13:26:30.066Z,30.90
2024-02-28T13:28:41.807Z,36.00
2024-02-28T13:30:53.150Z,47.90
2024-02-28T13:33:03.250Z,27.70
2024-02-28T13:35:14.452Z,44.60
2024-02-28T13:37:24.984Z,26.70
2024-02-28T13:39:36.175Z,39.90
2024-02-28T13:41:46.346Z,33.20
2024-02-28T13:43:56.790Z,32.10
2024-02-28T13:46:06.788Z,30.70
2024-02-28T13:48:22.527Z,39.30
2024-02-28T13:50:33.898Z,40.10
2024-02-28T13:52:43.851Z,38.80
2024-02-28T13:54:53.985Z,51.30
2024-02-28T13:57:06.367Z,28.10
2024-02-28T13:59:16.929Z,33.00
2024-02-28T14:01:26.905Z,27.90
2024-02-28T14:03:37.395Z,41.50
2024-02-28T14:05:48.084Z,36.80
2024-02-28T14:07:58.745Z,31.60
2024-02-28T14:10:11.587Z,30.80
2024-02-28T14:12:21.385Z,40.60
2024-02-28T14:14:31.905Z,49.90
2024-02-28T14:16:41.975Z,22.20
2024-02-28T14:18:51.961Z,28.20
2024-02-28T14:21:05.090Z,21.10
2024-02-28T14:23:16.372Z,38.30
2024-02-28T14:25:26.574Z,27.10
2024-02-28T14:27:36.982Z,42.50
2024-02-28T14:29:46.803Z,38.40
2024-02-28T14:31:56.572Z,35.40
2024-02-28T14:34:06.672Z,31.50
2024-02-28T14:36:16.502Z,33.20
2024-02-28T14:38:26.880Z,32.60
2024-02-28T14:40:36.950Z,35.30
2024-02-28T14:42:47.980Z,38.80
2024-02-28T14:44:58.284Z,35.80
2024-02-28T14:47:08.449Z,43.90
2024-02-28T14:49:18.949Z,63.90
2024-02-28T14:51:28.972Z,37.40
2024-02-28T14:53:38.737Z,35.20
2024-02-28T14:55:48.854Z,34.90
2024-02-28T14:57:59.095Z,35.70
2024-02-28T15:00:12.290Z,41.40
2024-02-28T15:02:22.837Z,41.80
2024-02-28T15:04:32.606Z,48.90
2024-02-28T15:06:42.599Z,38.70
2024-02-28T15:08:52.521Z,36.70
2024-02-28T15:11:02.580Z,30.10
2024-02-28T15:13:12.429Z,25.00
2024-02-28T15:15:23.043Z,29.50
2024-02-28T15:17:33.205Z,30.30
2024-02-28T15:19:43.106Z,27.80
2024-02-28T15:21:53.063Z,29.50
2024-02-28T15:24:03.072Z,32.20
2024-02-28T15:26:12.959Z,19.60
2024-02-28T15:28:23.024Z,16.20
2024-02-28T15:30:32.919Z,13.10
2024-02-28T15:32:43.961Z,13.70
2024-02-28T15:34:54.474Z,17.40
2024-02-28T15:37:04.351Z,18.80
2024-02-28T15:39:14.476Z,17.10
2024-02-28T15:41:25.439Z,18.40
2024-02-28T15:43:36.432Z,31.20
2024-02-28T15:45:46.642Z,22.20
2024-02-28T15:47:56.766Z,23.40
2024-02-28T15:50:10.303Z,37.20
2024-02-28T15:52:20.307Z,35.00
2024-02-28T15:54:30.232Z,40.30
2024-02-28T15:56:41.417Z,47.10
2024-02-28T15:58:51.500Z,44.10
2024-02-28T16:01:01.983Z,39.60
2024-02-28T16:03:12.438Z,33.80
2024-02-28T16:05:26.343Z,33.70
2024-02-28T16:07:36.602Z,42.00
2024-02-28T16:09:47.442Z,49.10
2024-02-28T16:11:58.356Z,37.10
2024-02-28T16:14:08.428Z,35.20
2024-02-28T16:16:19.104Z,34.10
2024-02-28T16:18:30.053Z,25.20
2024-02-28T16:20:40.092Z,39.40
2024-02-28T16:22:50.478Z,38.70
2024-02-28T16:25:00.539Z,44.60
2024-02-28T16:27:10.814Z,55.90
2024-02-28T16:29:21.190Z,50.40
2024-02-28T16:31:31.315Z,47.60
2024-02-28T16:33:42.005Z,33.20
2024-02-28T16:35:52.242Z,34.70
2024-02-28T16:38:02.153Z,35.00
2024-02-28T16:40:13.261Z,39.30
2024-02-28T16:42:26.257Z,35.80
2024-02-28T16:44:36.251Z,39.10
2024-02-28T16:46:46.729Z,42.40
2024-02-28T16:48:56.780Z,28.90
2024-02-28T16:51:07.226Z,40.10
2024-02-28T16:53:17.446Z,29.40
2024-02-28T16:55:27.767Z,32.10
2024-02-28T16:57:42.173Z,43.50
2024-02-28T16:59:52.648Z,32.10
2024-02-28T17:02:02.631Z,38.60
2024-02-28T17:04:12.582Z,32.20
2024-02-28T17:06:23.161Z,27.70
2024-02-28T17:08:34.436Z,33.20
2024-02-28T17:10:45.020Z,38.20
2024-02-28T17:12:54.814Z,30.00
2024-02-28T17:15:04.754Z,17.70
2024-02-28T17:17:16.390Z,22.90
2024-02-28T17:19:26.544Z,21.90
2024-02-28T17:21:37.229Z,22.10
2024-02-28T17:23:47.114Z,20.50
2024-02-28T17:25:57.236Z,19.20
2024-02-28T17:28:07.507Z,19.80
2024-02-28T17:30:17.873Z,20.50
2024-02-28T17:32:28.406Z,18.20
2024-02-28T17:34:38.387Z,20.90
2024-02-28T17:36:49.102Z,12.20
2024-02-28T17:38:58.867Z,19.70
2024-02-28T17:41:10.278Z,31.80
2024-02-28T17:43:20.922Z,32.30
2024-02-28T17:45:31.226Z,29.10
2024-02-28T17:47:41.556Z,23.50
2024-02-28T17:49:51.692Z,6.60
2024-02-28T17:52:01.770Z,20.20
2024-02-28T17:54:11.995Z,16.20
2024-02-28T17:56:22.152Z,25.90
2024-02-28T17:58:32.667Z,18.90
2024-02-28T18:00:42.843Z,26.60
2024-02-28T18:02:52.796Z,25.00
2024-02-28T18:05:02.805Z,27.00
2024-02-28T18:07:12.749Z,31.80
2024-02-28T18:09:23.367Z,37.20
2024-02-28T18:11:34.837Z,23.10
2024-02-28T18:13:44.923Z,21.80
2024-02-28T18:15:55.570Z,17.90
2024-02-28T18:18:06.221Z,21.00
2024-02-28T18:20:16.381Z,32.40
2024-02-28T18:22:26.642Z,30.30
2024-02-28T18:24:36.556Z,32.50
2024-02-28T18:26:46.402Z,32.90
2024-02-28T18:28:58.772Z,29.50
2024-02-28T18:31:09.728Z,41.70
2024-02-28T18:33:19.804Z,29.90
2024-02-28T18:35:32.950Z,47.60
2024-02-28T18:37:43.826Z,48.60
2024-02-28T18:39:53.826Z,39.00
2024-02-28T18:42:03.878Z,33.80
2024-02-28T18:44:16.270Z,30.80
2024-02-28T18:46:25.988Z,47.20
2024-02-28T18:48:38.380Z,38.50
2024-02-28T18:50:48.530Z,37.80
2024-02-28T18:52:58.317Z,33.90
2024-02-28T18:55:09.183Z,45.90
2024-02-28T18:57:19.429Z,26.70
2024-02-28T18:59:29.437Z,37.30
2024-02-28T19:01:39.428Z,27.50
2024-02-28T19:03:49.615Z,34.70
2024-02-28T19:06:00.120Z,38.90
2024-02-28T19:08:10.614Z,52.00
2024-02-28T19:10:22.025Z,28.20
2024-02-28T19:12:32.860Z,52.60
2024-02-28T19:14:42.664Z,44.70
2024-02-28T19:16:53.247Z,35.60
2024-02-28T19:19:03.908Z,48.90
2024-02-28T19:21:13.913Z,47.50
2024-02-28T19:23:24.180Z,42.10
2024-02-28T19:25:34.443Z,42.10
2024-02-28T19:27:44.586Z,51.70
2024-02-28T19:29:54.487Z,50.30
2024-02-28T19:32:04.341Z,45.20
2024-02-28T19:34:15.282Z,45.90
2024-02-28T19:36:25.239Z,53.60
2024-02-28T19:38:35.199Z,50.70
2024-02-28T19:40:45.172Z,59.00
2024-02-28T19:42:55.124Z,62.10
2024-02-28T19:45:05.226Z,43.50
2024-02-28T19:47:15.065Z,46.70
2024-02-28T19:49:26.408Z,42.00
2024-02-28T19:51:36.480Z,45.30
2024-02-28T19:53:46.708Z,53.50
2024-02-28T19:55:56.722Z,52.30
2024-02-28T19:58:07.418Z,49.40
2024-02-28T20:00:19.406Z,42.90
2024-02-28T20:02:29.435Z,43.10
2024-02-28T20:04:39.477Z,50.40
2024-02-28T20:06:49.432Z,40.90
2024-02-28T20:08:59.556Z,44.50
2024-02-28T20:11:10.117Z,37.40
2024-02-28T20:13:20.230Z,45.90
2024-02-28T20:15:30.147Z,48.20
2024-02-28T20:17:40.071Z,42.00
2024-02-28T20:19:50.708Z,55.70
2024-02-28T20:22:00.680Z,42.30
2024-02-28T20:24:10.982Z,45.10
2024-02-28T20:26:22.235Z,40.90
2024-02-28T20:28:32.360Z,52.50
2024-02-28T20:30:42.301Z,52.80
2024-02-28T20:32:52.638Z,48.20
2024-02-28T20:35:02.630Z,49.40
2024-02-28T20:37:12.509Z,43.80
2024-02-28T20:39:22.794Z,38.40
2024-02-28T20:41:35.139Z,44.90
2024-02-28T20:43:45.207Z,52.00
2024-02-28T20:45:56.296Z,38.60
2024-02-28T20:48:06.380Z,49.60
2024-02-28T20:50:17.267Z,53.20
2024-02-28T20:52:27.547Z,48.50
2024-02-28T20:54:37.635Z,55.80
2024-02-28T20:56:49.074Z,46.50
2024-02-28T20:59:00.704Z,59.30
2024-02-28T21:01:10.689Z,38.10
2024-02-28T21:03:21.158Z,50.80
2024-02-28T21:05:32.213Z,51.10
2024-02-28T21:07:51.749Z,52.80
2024-02-28T21:10:03.238Z,46.90
2024-02-28T21:12:15.293Z,54.10
2024-02-28T21:14:25.173Z,51.80
2024-02-28T21:16:34.928Z,47.70
2024-02-28T21:18:44.952Z,33.00
2024-02-28T21:20:56.572Z,37.00
2024-02-28T21:23:06.690Z,44.00
2024-02-28T21:25:16.687Z,40.20
2024-02-28T21:27:26.618Z,50.00
2024-02-28T21:29:36.721Z,39.20
2024-02-28T21:31:46.828Z,49.80
2024-02-28T21:33:57.804Z,49.60
2024-02-28T21:36:08.104Z,51.70
2024-02-28T21:38:18.707Z,51.90
2024-02-28T21:40:29.554Z,53.40
2024-02-28T21:42:40.014Z,72.10
2024-02-28T21:44:50.388Z,67.50
2024-02-28T21:47:02.640Z,46.70
2024-02-28T21:49:13.972Z,71.30
2024-02-28T21:51:25.173Z,59.30
2024-02-28T21:53:35.165Z,60.00
2024-02-28T21:55:45.692Z,43.80
2024-02-28T21:57:56.419Z,44.20
2024-02-28T22:00:06.782Z,34.00
2024-02-28T22:02:20.031Z,45.20
2024-02-28T22:04:29.861Z,43.20
2024-02-28T22:06:40.270Z,43.20
2024-02-28T22:08:50.170Z,72.20
2024-02-28T22:10:59.969Z,59.80
2024-02-28T22:13:10.936Z,53.90
2024-02-28T22:15:21.166Z,50.40
2024-02-28T22:17:31.027Z,52.90
2024-02-28T22:19:41.045Z,61.70
2024-02-28T22:21:51.496Z,53.00
2024-02-28T22:24:01.512Z,55.60
2024-02-28T22:26:11.420Z,67.00
2024-02-28T22:28:21.564Z,49.20
2024-02-28T22:30:32.259Z,59.80
2024-02-28T22:32:42.138Z,61.90
2024-02-28T22:34:52.052Z,66.70
2024-02-28T22:37:02.546Z,54.10
2024-02-28T22:39:13.522Z,55.60
2024-02-28T22:41:27.835Z,57.10
2024-02-28T22:43:37.667Z,50.70
2024-02-28T22:45:48.021Z,58.10
2024-02-28T22:47:58.469Z,59.90
2024-02-28T22:50:09.467Z,47.00
2024-02-28T22:52:19.732Z,53.20
2024-02-28T22:54:29.772Z,60.80
2024-02-28T22:56:39.734Z,58.20
2024-02-28T22:58:49.694Z,54.00
2024-02-28T23:00:59.609Z,45.10
2024-02-28T23:03:10.065Z,61.10
2024-02-28T23:05:20.339Z,39.60
2024-02-28T23:07:30.310Z,51.70
2024-02-28T23:09:40.085Z,56.60
2024-02-28T23:11:50.761Z,55.60
2024-02-28T23:14:00.817Z,64.90
2024-02-28T23:16:11.300Z,57.60
2024-02-28T23:18:21.247Z,50.30
2024-02-28T23:20:35.281Z,44.00
2024-02-28T23:22:45.725Z,53.80
2024-02-28T23:24:55.672Z,43.70
2024-02-28T23:27:05.653Z,53.40
2024-02-28T23:29:15.567Z,53.60
2024-02-28T23:31:25.403Z,52.40
2024-02-28T23:33:35.269Z,64.70
2024-02-28T23:35:45.768Z,47.00
2024-02-28T23:37:55.827Z,49.10
2024-02-28T23:40:08.185Z,57.00
2024-02-28T23:44:25.881Z,49.00
2024-02-28T23:46:35.679Z,61.40
2024-02-28T23:48:45.653Z,40.60
2024-02-28T23:50:56.110Z,42.60
2024-02-28T23:53:06.655Z,51.50
2024-02-28T23:55:17.028Z,47.80
2024-02-28T23:57:27.523Z,43.70
2024-02-28T23:59:37.597Z,34.40
